sensor_id;sensor_type;location;lat;lon;timestamp;pressure;altitude;pressure_sealevel;temperature;humidity
38038;BME280;23843;51.320;12.340;2022-10-15T04:31:49;99529.09;;;15.46;88.84
38038;BME280;23843;51.320;12.340;2022-10-15T04:34:15;99537.66;;;15.39;89.26
38038;BME280;23843;51.320;12.340;2022-10-15T04:36:40;99538.06;;;15.35;89.12
38038;BME280;23843;51.320;12.340;2022-10-15T04:39:06;99536.38;;;15.34;88.91
38038;BME280;23843;51.320;12.340;2022-10-15T04:41:31;99545.94;;;15.36;89.07
38038;BME280;23843;51.320;12.340;2022-10-15T04:43:57;99546.50;;;15.40;88.63
38038;BME280;23843;51.320;12.340;2022-10-15T04:46:22;99547.34;;;15.40;89.54
38038;BME280;23843;51.320;12.340;2022-10-15T04:48:51;99548.88;;;15.43;88.89
38038;BME280;23843;51.320;12.340;2022-10-15T04:51:19;99541.75;;;15.44;88.82
38038;BME280;23843;51.320;12.340;2022-10-15T04:53:45;99538.94;;;15.45;88.98
38038;BME280;23843;51.320;12.340;2022-10-15T04:56:12;99538.66;;;15.48;88.92
38038;BME280;23843;51.320;12.340;2022-10-15T04:58:38;99533.31;;;15.48;89.60
38038;BME280;23843;51.320;12.340;2022-10-15T05:01:05;99537.81;;;15.48;89.11
38038;BME280;23843;51.320;12.340;2022-10-15T05:03:31;99538.66;;;15.48;89.03
38038;BME280;23843;51.320;12.340;2022-10-15T05:06:03;99542.88;;;15.51;88.84
38038;BME280;23843;51.320;12.340;2022-10-15T05:08:30;99542.75;;;15.52;89.14
38038;BME280;23843;51.320;12.340;2022-10-15T05:10:59;99543.47;;;15.54;88.99
38038;BME280;23843;51.320;12.340;2022-10-15T05:13:25;99546.84;;;15.56;88.40
38038;BME280;23843;51.320;12.340;2022-10-15T05:15:50;99546.84;;;15.56;88.56
38038;BME280;23843;51.320;12.340;2022-10-15T05:18:15;99551.09;;;15.59;88.68
38038;BME280;23843;51.320;12.340;2022-10-15T05:20:41;99538.44;;;15.61;88.69
38038;BME280;23843;51.320;12.340;2022-10-15T05:23:07;99540.13;;;15.62;88.23
38038;BME280;23843;51.320;12.340;2022-10-15T05:25:33;99530.28;;;15.62;88.31
38038;BME280;23843;51.320;12.340;2022-10-15T05:27:58;99531.16;;;15.63;88.11
38038;BME280;23843;51.320;12.340;2022-10-15T05:30:23;99541.56;;;15.66;88.10
38038;BME280;23843;51.320;12.340;2022-10-15T05:32:50;99543.22;;;15.67;87.98
38038;BME280;23843;51.320;12.340;2022-10-15T05:35:15;99544.94;;;15.68;88.00
38038;BME280;23843;51.320;12.340;2022-10-15T05:37:41;99550.41;;;15.67;88.39
38038;BME280;23843;51.320;12.340;2022-10-15T05:40:09;99546.06;;;15.66;88.92
38038;BME280;23843;51.320;12.340;2022-10-15T05:42:34;99552.34;;;15.65;88.74
38038;BME280;23843;51.320;12.340;2022-10-15T05:45:00;99552.22;;;15.66;88.24
38038;BME280;23843;51.320;12.340;2022-10-15T05:47:25;99558.41;;;15.67;88.12
38038;BME280;23843;51.320;12.340;2022-10-15T05:49:51;99561.78;;;15.69;88.16
38038;BME280;23843;51.320;12.340;2022-10-15T05:52:16;99554.38;;;15.72;87.78
38038;BME280;23843;51.320;12.340;2022-10-15T05:54:42;99553.41;;;15.73;87.94
38038;BME280;23843;51.320;12.340;2022-10-15T05:57:08;99554.25;;;15.74;88.02
38038;BME280;23843;51.320;12.340;2022-10-15T05:59:34;99563.09;;;15.74;87.74
38038;BME280;23843;51.320;12.340;2022-10-15T06:01:59;99556.81;;;15.75;87.79
38038;BME280;23843;51.320;12.340;2022-10-15T06:04:24;99564.53;;;15.78;87.63
38038;BME280;23843;51.320;12.340;2022-10-15T06:06:50;99569.59;;;15.81;87.72
38038;BME280;23843;51.320;12.340;2022-10-15T06:09:15;99573.94;;;15.82;87.44
38038;BME280;23843;51.320;12.340;2022-10-15T06:11:40;99566.91;;;15.81;88.14
38038;BME280;23843;51.320;12.340;2022-10-15T06:14:07;99555.25;;;15.82;87.59
38038;BME280;23843;51.320;12.340;2022-10-15T06:16:33;99566.09;;;15.81;87.63
38038;BME280;23843;51.320;12.340;2022-10-15T06:18:58;99567.63;;;15.83;87.47
38038;BME280;23843;51.320;12.340;2022-10-15T06:21:23;99568.91;;;15.89;87.22
38038;BME280;23843;51.320;12.340;2022-10-15T06:23:49;99580.31;;;15.91;87.09
38038;BME280;23843;51.320;12.340;2022-10-15T06:26:15;99573.84;;;15.94;86.86
38038;BME280;23843;51.320;12.340;2022-10-15T06:28:40;99572.72;;;15.96;86.94
38038;BME280;23843;51.320;12.340;2022-10-15T06:31:07;99580.63;;;15.98;86.94
38038;BME280;23843;51.320;12.340;2022-10-15T06:33:33;99587.50;;;16.00;86.70
38038;BME280;23843;51.320;12.340;2022-10-15T06:36:03;99584.69;;;16.02;86.58
38038;BME280;23843;51.320;12.340;2022-10-15T06:38:29;99581.88;;;16.03;86.52
38038;BME280;23843;51.320;12.340;2022-10-15T06:40:54;99581.88;;;16.03;86.71
38038;BME280;23843;51.320;12.340;2022-10-15T06:43:20;99579.66;;;16.09;86.93
38038;BME280;23843;51.320;12.340;2022-10-15T06:45:45;99577.41;;;16.14;86.81
38038;BME280;23843;51.320;12.340;2022-10-15T06:48:12;99581.94;;;16.23;86.66
38038;BME280;23843;51.320;12.340;2022-10-15T06:50:37;99591.63;;;16.34;86.56
38038;BME280;23843;51.320;12.340;2022-10-15T06:53:04;99590.97;;;16.41;86.23
38038;BME280;23843;51.320;12.340;2022-10-15T06:55:30;99585.34;;;16.44;85.79
38038;BME280;23843;51.320;12.340;2022-10-15T06:57:56;99591.94;;;16.50;85.61
38038;BME280;23843;51.320;12.340;2022-10-15T07:00:21;99596.03;;;16.54;85.36
38038;BME280;23843;51.320;12.340;2022-10-15T07:02:47;99601.38;;;16.54;85.08
38038;BME280;23843;51.320;12.340;2022-10-15T07:05:14;99607.56;;;16.55;84.94
38038;BME280;23843;51.320;12.340;2022-10-15T07:07:39;99605.91;;;16.54;84.93
38038;BME280;23843;51.320;12.340;2022-10-15T07:10:05;99606.16;;;16.51;85.13
38038;BME280;23843;51.320;12.340;2022-10-15T07:12:31;99616.00;;;16.50;84.91
38038;BME280;23843;51.320;12.340;2022-10-15T07:14:56;99623.75;;;16.53;85.11
38038;BME280;23843;51.320;12.340;2022-10-15T07:17:21;99626.41;;;16.53;85.37
38038;BME280;23843;51.320;12.340;2022-10-15T07:19:47;99628.13;;;16.54;85.39
38038;BME280;23843;51.320;12.340;2022-10-15T07:22:13;99632.47;;;16.55;85.30
38038;BME280;23843;51.320;12.340;2022-10-15T07:24:39;99633.34;;;16.56;85.38
38038;BME280;23843;51.320;12.340;2022-10-15T07:27:04;99632.34;;;16.57;85.29
38038;BME280;23843;51.320;12.340;2022-10-15T07:29:30;99634.59;;;16.61;85.24
38038;BME280;23843;51.320;12.340;2022-10-15T07:31:55;99635.16;;;16.65;85.32
38038;BME280;23843;51.320;12.340;2022-10-15T07:34:20;99631.22;;;16.69;85.14
38038;BME280;23843;51.320;12.340;2022-10-15T07:36:46;99631.53;;;16.76;85.08
38038;BME280;23843;51.320;12.340;2022-10-15T07:39:13;99635.34;;;16.83;84.83
38038;BME280;23843;51.320;12.340;2022-10-15T07:41:38;99635.78;;;16.88;84.57
38038;BME280;23843;51.320;12.340;2022-10-15T07:44:04;99634.34;;;16.94;84.48
38038;BME280;23843;51.320;12.340;2022-10-15T07:46:29;99622.94;;;17.01;84.49
38038;BME280;23843;51.320;12.340;2022-10-15T07:48:55;99623.22;;;17.08;84.04
38038;BME280;23843;51.320;12.340;2022-10-15T07:51:20;99620.13;;;17.13;83.92
38038;BME280;23843;51.320;12.340;2022-10-15T07:53:45;99629.41;;;17.18;83.82
38038;BME280;23843;51.320;12.340;2022-10-15T07:56:13;99633.31;;;17.24;83.61
38038;BME280;23843;51.320;12.340;2022-10-15T07:58:39;99639.38;;;17.26;83.32
38038;BME280;23843;51.320;12.340;2022-10-15T08:01:05;99639.66;;;17.32;83.09
38038;BME280;23843;51.320;12.340;2022-10-15T08:03:31;99637.38;;;17.47;83.29
38038;BME280;23843;51.320;12.340;2022-10-15T08:05:59;99639.28;;;17.65;83.21
38038;BME280;23843;51.320;12.340;2022-10-15T08:08:25;99635.88;;;17.72;82.00
38038;BME280;23843;51.320;12.340;2022-10-15T08:10:50;99642.94;;;17.83;81.82
38038;BME280;23843;51.320;12.340;2022-10-15T08:13:17;99635.00;;;17.91;81.36
38038;BME280;23843;51.320;12.340;2022-10-15T08:15:42;99634.56;;;17.96;81.20
38038;BME280;23843;51.320;12.340;2022-10-15T08:18:08;99631.56;;;17.99;80.65
38038;BME280;23843;51.320;12.340;2022-10-15T08:20:33;99637.50;;;18.03;80.62
38038;BME280;23843;51.320;12.340;2022-10-15T08:22:59;99637.19;;;18.06;80.60
38038;BME280;23843;51.320;12.340;2022-10-15T08:25:25;99639.56;;;18.09;80.45
38038;BME280;23843;51.320;12.340;2022-10-15T08:27:51;99634.22;;;18.09;80.17
38038;BME280;23843;51.320;12.340;2022-10-15T08:30:18;99636.50;;;18.04;80.44
38038;BME280;23843;51.320;12.340;2022-10-15T08:32:44;99641.41;;;18.08;80.50
38038;BME280;23843;51.320;12.340;2022-10-15T08:35:09;99639.38;;;18.20;80.41
38038;BME280;23843;51.320;12.340;2022-10-15T08:37:35;99655.22;;;18.41;79.80
38038;BME280;23843;51.320;12.340;2022-10-15T08:40:01;99662.19;;;18.52;79.33
38038;BME280;23843;51.320;12.340;2022-10-15T08:42:31;99663.03;;;18.52;79.62
38038;BME280;23843;51.320;12.340;2022-10-15T08:45:02;99664.19;;;18.68;79.88
38038;BME280;23843;51.320;12.340;2022-10-15T08:47:33;99662.47;;;18.94;79.55
38038;BME280;23843;51.320;12.340;2022-10-15T08:50:05;99665.00;;;19.14;78.75
38038;BME280;23843;51.320;12.340;2022-10-15T08:52:40;99666.63;;;19.24;77.71
38038;BME280;23843;51.320;12.340;2022-10-15T08:55:08;99666.91;;;19.21;77.37
38038;BME280;23843;51.320;12.340;2022-10-15T08:57:40;99668.59;;;19.22;77.85
38038;BME280;23843;51.320;12.340;2022-10-15T09:00:12;99670.81;;;19.09;77.67
38038;BME280;23843;51.320;12.340;2022-10-15T09:02:46;99674.38;;;19.10;78.28
38038;BME280;23843;51.320;12.340;2022-10-15T09:05:34;99675.91;;;19.12;77.31
38038;BME280;23843;51.320;12.340;2022-10-15T09:08:06;99686.00;;;19.18;77.58
38038;BME280;23843;51.320;12.340;2022-10-15T09:10:42;99690.50;;;19.10;76.78
38038;BME280;23843;51.320;12.340;2022-10-15T09:13:13;99697.28;;;19.04;76.83
38038;BME280;23843;51.320;12.340;2022-10-15T09:15:46;99696.72;;;18.92;77.35
38038;BME280;23843;51.320;12.340;2022-10-15T09:18:19;99695.69;;;18.93;77.41
38038;BME280;23843;51.320;12.340;2022-10-15T09:20:46;99702.59;;;18.96;77.37
38038;BME280;23843;51.320;12.340;2022-10-15T09:23:16;99697.75;;;18.99;77.72
38038;BME280;23843;51.320;12.340;2022-10-15T09:25:43;99694.09;;;19.00;77.64
38038;BME280;23843;51.320;12.340;2022-10-15T09:28:15;99692.41;;;19.17;77.81
38038;BME280;23843;51.320;12.340;2022-10-15T09:30:47;99695.88;;;19.36;77.21
38038;BME280;23843;51.320;12.340;2022-10-15T09:33:18;99699.81;;;19.41;75.16
38038;BME280;23843;51.320;12.340;2022-10-15T09:35:53;99701.44;;;19.34;75.54
38038;BME280;23843;51.320;12.340;2022-10-15T09:38:30;99709.25;;;19.28;76.05
38038;BME280;23843;51.320;12.340;2022-10-15T09:41:07;99713.25;;;19.23;75.27
38038;BME280;23843;51.320;12.340;2022-10-15T09:43:36;99707.72;;;19.25;76.23
38038;BME280;23843;51.320;12.340;2022-10-15T09:46:03;99704.72;;;19.28;75.93
38038;BME280;23843;51.320;12.340;2022-10-15T09:48:34;99714.53;;;19.37;75.56
38038;BME280;23843;51.320;12.340;2022-10-15T09:51:03;99711.16;;;19.35;74.87
38038;BME280;23843;51.320;12.340;2022-10-15T09:53:41;99705.56;;;19.29;74.88
38038;BME280;23843;51.320;12.340;2022-10-15T09:56:13;99710.09;;;19.28;75.57
38038;BME280;23843;51.320;12.340;2022-10-15T09:58:45;99707.50;;;19.36;76.15
38038;BME280;23843;51.320;12.340;2022-10-15T10:01:17;99709.09;;;19.47;74.80
38038;BME280;23843;51.320;12.340;2022-10-15T10:03:45;99712.88;;;19.36;74.37
38038;BME280;23843;51.320;12.340;2022-10-15T10:06:14;99710.94;;;19.29;74.07
38038;BME280;23843;51.320;12.340;2022-10-15T10:08:47;99710.72;;;19.22;74.76
38038;BME280;23843;51.320;12.340;2022-10-15T10:11:14;99708.41;;;19.27;74.73
38038;BME280;23843;51.320;12.340;2022-10-15T10:13:44;99706.44;;;19.29;73.87
38038;BME280;23843;51.320;12.340;2022-10-15T10:16:11;99708.34;;;19.37;74.37
38038;BME280;23843;51.320;12.340;2022-10-15T10:18:37;99710.47;;;19.51;73.63
38038;BME280;23843;51.320;12.340;2022-10-15T10:21:05;99722.28;;;19.58;72.97
38038;BME280;23843;51.320;12.340;2022-10-15T10:23:32;99714.59;;;19.63;73.17
38038;BME280;23843;51.320;12.340;2022-10-15T10:25:58;99708.59;;;19.70;72.47
38038;BME280;23843;51.320;12.340;2022-10-15T10:28:26;99711.72;;;19.65;71.36
38038;BME280;23843;51.320;12.340;2022-10-15T10:31:00;99718.25;;;19.62;71.78
38038;BME280;23843;51.320;12.340;2022-10-15T10:33:28;99716.34;;;19.55;71.70
38038;BME280;23843;51.320;12.340;2022-10-15T10:35:54;99731.09;;;19.51;71.92
38038;BME280;23843;51.320;12.340;2022-10-15T10:38:22;99728.03;;;19.45;71.85
38038;BME280;23843;51.320;12.340;2022-10-15T10:40:52;99725.53;;;19.44;72.43
38038;BME280;23843;51.320;12.340;2022-10-15T10:43:22;99718.91;;;19.56;72.45
38038;BME280;23843;51.320;12.340;2022-10-15T10:45:57;99718.50;;;19.69;70.94
38038;BME280;23843;51.320;12.340;2022-10-15T10:48:26;99712.53;;;19.75;72.21
38038;BME280;23843;51.320;12.340;2022-10-15T10:51:02;99712.56;;;19.83;72.53
38038;BME280;23843;51.320;12.340;2022-10-15T10:53:29;99708.72;;;19.86;71.31
38038;BME280;23843;51.320;12.340;2022-10-15T10:55:56;99710.94;;;19.91;71.09
38038;BME280;23843;51.320;12.340;2022-10-15T10:58:22;99712.31;;;19.95;70.98
38038;BME280;23843;51.320;12.340;2022-10-15T11:00:49;99713.16;;;19.95;69.81
38038;BME280;23843;51.320;12.340;2022-10-15T11:03:22;99720.53;;;19.93;70.32
38038;BME280;23843;51.320;12.340;2022-10-15T11:05:57;99725.06;;;19.93;70.15
38038;BME280;23843;51.320;12.340;2022-10-15T11:08:31;99719.34;;;19.96;70.09
38038;BME280;23843;51.320;12.340;2022-10-15T11:11:09;99722.19;;;19.94;69.73
38038;BME280;23843;51.320;12.340;2022-10-15T11:13:49;99721.56;;;20.00;69.33
38038;BME280;23843;51.320;12.340;2022-10-15T11:16:26;99721.25;;;20.03;69.34
38038;BME280;23843;51.320;12.340;2022-10-15T11:19:11;99719.75;;;20.09;69.08
38038;BME280;23843;51.320;12.340;2022-10-15T11:21:50;99725.50;;;20.14;69.56
38038;BME280;23843;51.320;12.340;2022-10-15T11:24:25;99724.84;;;20.12;68.78
38038;BME280;23843;51.320;12.340;2022-10-15T11:27:04;99731.38;;;20.09;69.39
38038;BME280;23843;51.320;12.340;2022-10-15T11:29:39;99722.66;;;20.16;69.66
38038;BME280;23843;51.320;12.340;2022-10-15T11:32:13;99726.03;;;20.18;69.59
38038;BME280;23843;51.320;12.340;2022-10-15T11:34:49;99723.84;;;20.21;69.85
38038;BME280;23843;51.320;12.340;2022-10-15T11:37:25;99729.22;;;20.21;69.48
38038;BME280;23843;51.320;12.340;2022-10-15T11:40:13;99729.72;;;20.17;69.69
38038;BME280;23843;51.320;12.340;2022-10-15T11:42:46;99727.69;;;20.19;70.04
38038;BME280;23843;51.320;12.340;2022-10-15T11:45:33;99739.94;;;20.13;70.29
38038;BME280;23843;51.320;12.340;2022-10-15T11:48:06;99736.91;;;20.08;70.24
38038;BME280;23843;51.320;12.340;2022-10-15T11:50:39;99736.97;;;19.90;69.84
38038;BME280;23843;51.320;12.340;2022-10-15T11:56:12;99734.22;;;19.82;70.27
38038;BME280;23843;51.320;12.340;2022-10-15T11:58:42;99727.38;;;19.87;70.33
38038;BME280;23843;51.320;12.340;2022-10-15T12:01:11;99726.22;;;19.90;70.58
38038;BME280;23843;51.320;12.340;2022-10-15T12:03:44;99724.88;;;19.94;70.30
38038;BME280;23843;51.320;12.340;2022-10-15T12:06:15;99728.63;;;20.01;70.06
38038;BME280;23843;51.320;12.340;2022-10-15T12:08:41;99719.88;;;19.99;70.61
38038;BME280;23843;51.320;12.340;2022-10-15T12:11:28;99727.81;;;20.09;69.96
38038;BME280;23843;51.320;12.340;2022-10-15T12:14:05;99735.22;;;20.07;69.29
38038;BME280;23843;51.320;12.340;2022-10-15T12:16:38;99725.78;;;20.03;69.71
38038;BME280;23843;51.320;12.340;2022-10-15T12:19:12;99717.53;;;20.04;69.44
38038;BME280;23843;51.320;12.340;2022-10-15T12:21:43;99710.38;;;20.13;69.73
38038;BME280;23843;51.320;12.340;2022-10-15T12:27:15;99706.25;;;20.27;68.76
38038;BME280;23843;51.320;12.340;2022-10-15T12:29:41;99693.78;;;20.26;68.74
38038;BME280;23843;51.320;12.340;2022-10-15T12:32:20;99690.25;;;20.25;68.60
38038;BME280;23843;51.320;12.340;2022-10-15T12:34:53;99692.75;;;20.19;68.73
38038;BME280;23843;51.320;12.340;2022-10-15T12:37:21;99684.03;;;20.17;68.60
38038;BME280;23843;51.320;12.340;2022-10-15T12:39:54;99681.97;;;20.10;68.11
38038;BME280;23843;51.320;12.340;2022-10-15T12:42:25;99686.16;;;20.05;68.58
38038;BME280;23843;51.320;12.340;2022-10-15T12:44:51;99682.59;;;20.04;68.50
38038;BME280;23843;51.320;12.340;2022-10-15T12:47:45;99683.28;;;20.06;68.54
38038;BME280;23843;51.320;12.340;2022-10-15T12:50:17;99683.97;;;20.08;68.29
38038;BME280;23843;51.320;12.340;2022-10-15T12:52:58;99694.94;;;20.15;68.34
38038;BME280;23843;51.320;12.340;2022-10-15T12:55:31;99692.38;;;20.14;68.27
38038;BME280;23843;51.320;12.340;2022-10-15T12:58:00;99693.91;;;20.16;68.22
38038;BME280;23843;51.320;12.340;2022-10-15T13:00:41;99693.09;;;20.24;68.06
38038;BME280;23843;51.320;12.340;2022-10-15T13:03:10;99690.63;;;20.30;68.07
38038;BME280;23843;51.320;12.340;2022-10-15T13:05:38;99686.59;;;20.35;68.02
38038;BME280;23843;51.320;12.340;2022-10-15T13:08:11;99687.28;;;20.37;67.03
38038;BME280;23843;51.320;12.340;2022-10-15T13:10:39;99688.63;;;20.41;67.36
38038;BME280;23843;51.320;12.340;2022-10-15T13:13:12;99698.91;;;20.45;67.32
38038;BME280;23843;51.320;12.340;2022-10-15T13:15:39;99692.88;;;20.51;67.55
38038;BME280;23843;51.320;12.340;2022-10-15T13:18:09;99692.44;;;20.56;66.76
38038;BME280;23843;51.320;12.340;2022-10-15T13:20:36;99693.94;;;20.59;66.55
38038;BME280;23843;51.320;12.340;2022-10-15T13:23:13;99695.63;;;20.60;66.46
38038;BME280;23843;51.320;12.340;2022-10-15T13:25:40;99692.88;;;20.51;66.38
38038;BME280;23843;51.320;12.340;2022-10-15T13:28:28;99699.59;;;20.47;66.65
38038;BME280;23843;51.320;12.340;2022-10-15T13:30:54;99692.53;;;20.46;66.75
38038;BME280;23843;51.320;12.340;2022-10-15T13:33:20;99689.50;;;20.49;66.51
38038;BME280;23843;51.320;12.340;2022-10-15T13:35:46;99697.44;;;20.51;66.75
38038;BME280;23843;51.320;12.340;2022-10-15T13:38:19;99698.41;;;20.50;66.57
38038;BME280;23843;51.320;12.340;2022-10-15T13:40:47;99691.19;;;20.50;66.78
38038;BME280;23843;51.320;12.340;2022-10-15T13:43:16;99693.41;;;20.55;66.84
38038;BME280;23843;51.320;12.340;2022-10-15T13:45:46;99690.44;;;20.58;66.82
38038;BME280;23843;51.320;12.340;2022-10-15T13:48:11;99690.56;;;20.57;65.92
38038;BME280;23843;51.320;12.340;2022-10-15T13:50:37;99700.31;;;20.58;65.78
38038;BME280;23843;51.320;12.340;2022-10-15T13:53:20;99697.63;;;20.58;64.82
38038;BME280;23843;51.320;12.340;2022-10-15T13:55:48;99695.81;;;20.58;64.65
38038;BME280;23843;51.320;12.340;2022-10-15T13:58:18;99699.50;;;20.57;64.45
38038;BME280;23843;51.320;12.340;2022-10-15T14:00:50;99700.50;;;20.56;64.76
38038;BME280;23843;51.320;12.340;2022-10-15T14:03:19;99697.09;;;20.54;64.24
38038;BME280;23843;51.320;12.340;2022-10-15T14:05:46;99686.66;;;20.51;64.90
38038;BME280;23843;51.320;12.340;2022-10-15T14:08:18;99694.56;;;20.52;64.57
38038;BME280;23843;51.320;12.340;2022-10-15T14:10:44;99691.69;;;20.46;64.51
38038;BME280;23843;51.320;12.340;2022-10-15T14:13:10;99698.75;;;20.39;65.22
38038;BME280;23843;51.320;12.340;2022-10-15T14:15:40;99700.19;;;20.33;65.71
38038;BME280;23843;51.320;12.340;2022-10-15T14:18:08;99700.88;;;20.27;65.50
38038;BME280;23843;51.320;12.340;2022-10-15T14:20:34;99707.41;;;20.24;65.99
38038;BME280;23843;51.320;12.340;2022-10-15T14:23:00;99708.59;;;20.22;65.91
38038;BME280;23843;51.320;12.340;2022-10-15T14:25:26;99697.63;;;20.15;66.07
38038;BME280;23843;51.320;12.340;2022-10-15T14:27:51;99703.97;;;20.14;66.45
38038;BME280;23843;51.320;12.340;2022-10-15T14:30:21;99700.78;;;20.10;66.57
38038;BME280;23843;51.320;12.340;2022-10-15T14:32:49;99689.34;;;20.08;66.99
38038;BME280;23843;51.320;12.340;2022-10-15T14:35:24;99690.03;;;20.10;66.90
38038;BME280;23843;51.320;12.340;2022-10-15T14:37:58;99692.72;;;20.10;67.00
38038;BME280;23843;51.320;12.340;2022-10-15T14:40:23;99698.09;;;20.10;66.92
38038;BME280;23843;51.320;12.340;2022-10-15T14:43:01;99694.03;;;20.06;66.93
38038;BME280;23843;51.320;12.340;2022-10-15T14:45:28;99688.97;;;20.03;67.01
38038;BME280;23843;51.320;12.340;2022-10-15T14:47:56;99687.97;;;20.04;67.09
38038;BME280;23843;51.320;12.340;2022-10-15T14:50:29;99687.97;;;20.04;67.35
38038;BME280;23843;51.320;12.340;2022-10-15T14:52:55;99683.28;;;20.06;67.13
38038;BME280;23843;51.320;12.340;2022-10-15T14:55:28;99692.03;;;20.08;67.16
38038;BME280;23843;51.320;12.340;2022-10-15T14:57:54;99693.72;;;20.09;66.92
38038;BME280;23843;51.320;12.340;2022-10-15T15:00:23;99687.47;;;20.09;67.33
38038;BME280;23843;51.320;12.340;2022-10-15T15:02:50;99694.72;;;20.08;67.22
38038;BME280;23843;51.320;12.340;2022-10-15T15:05:20;99700.78;;;20.10;67.07
38038;BME280;23843;51.320;12.340;2022-10-15T15:07:47;99693.19;;;20.06;67.30
38038;BME280;23843;51.320;12.340;2022-10-15T15:10:13;99700.41;;;20.05;67.45
38038;BME280;23843;51.320;12.340;2022-10-15T15:12:39;99698.06;;;20.02;67.39
38038;BME280;23843;51.320;12.340;2022-10-15T15:15:12;99709.13;;;19.99;67.52
38038;BME280;23843;51.320;12.340;2022-10-15T15:17:37;99709.06;;;19.91;67.59
38038;BME280;23843;51.320;12.340;2022-10-15T15:20:03;99712.41;;;19.85;67.64
38038;BME280;23843;51.320;12.340;2022-10-15T15:22:30;99710.97;;;19.73;68.05
38038;BME280;23843;51.320;12.340;2022-10-15T15:24:59;99711.28;;;19.70;67.52
38038;BME280;23843;51.320;12.340;2022-10-15T15:27:28;99700.13;;;19.64;67.46
38038;BME280;23843;51.320;12.340;2022-10-15T15:29:54;99699.06;;;19.57;67.24
38038;BME280;23843;51.320;12.340;2022-10-15T15:32:20;99699.41;;;19.54;67.63
38038;BME280;23843;51.320;12.340;2022-10-15T15:34:46;99705.59;;;19.55;67.48
38038;BME280;23843;51.320;12.340;2022-10-15T15:37:13;99713.53;;;19.56;67.69
38038;BME280;23843;51.320;12.340;2022-10-15T15:39:39;99705.59;;;19.55;67.61
38038;BME280;23843;51.320;12.340;2022-10-15T15:42:08;99703.75;;;19.55;67.49
38038;BME280;23843;51.320;12.340;2022-10-15T15:44:34;99704.78;;;19.54;67.62
38038;BME280;23843;51.320;12.340;2022-10-15T15:46:59;99704.78;;;19.54;67.76
38038;BME280;23843;51.320;12.340;2022-10-15T15:49:25;99705.78;;;19.53;67.67
38038;BME280;23843;51.320;12.340;2022-10-15T15:51:50;99712.47;;;19.49;67.81
38038;BME280;23843;51.320;12.340;2022-10-15T15:54:16;99712.78;;;19.46;67.77
38038;BME280;23843;51.320;12.340;2022-10-15T15:56:41;99718.28;;;19.44;67.89
38038;BME280;23843;51.320;12.340;2022-10-15T15:59:08;99711.06;;;19.45;68.10
38038;BME280;23843;51.320;12.340;2022-10-15T16:01:33;99719.97;;;19.45;67.68
38038;BME280;23843;51.320;12.340;2022-10-15T16:03:58;99728.81;;;19.38;67.85
38038;BME280;23843;51.320;12.340;2022-10-15T16:06:24;99722.75;;;19.36;67.74
38038;BME280;23843;51.320;12.340;2022-10-15T16:08:50;99727.44;;;19.34;67.81
38038;BME280;23843;51.320;12.340;2022-10-15T16:11:15;99728.91;;;19.28;67.84
38038;BME280;23843;51.320;12.340;2022-10-15T16:13:40;99731.34;;;19.21;67.80
38038;BME280;23843;51.320;12.340;2022-10-15T16:16:08;99740.03;;;19.15;68.25
38038;BME280;23843;51.320;12.340;2022-10-15T16:18:33;99738.81;;;19.10;68.36
38038;BME280;23843;51.320;12.340;2022-10-15T16:20:58;99736.59;;;19.05;68.40
38038;BME280;23843;51.320;12.340;2022-10-15T16:23:24;99735.50;;;18.98;68.48
38038;BME280;23843;51.320;12.340;2022-10-15T16:25:49;99730.59;;;18.93;68.60
38038;BME280;23843;51.320;12.340;2022-10-15T16:28:15;99738.09;;;18.90;68.90
38038;BME280;23843;51.320;12.340;2022-10-15T16:30:40;99742.78;;;18.88;68.99
38038;BME280;23843;51.320;12.340;2022-10-15T16:33:07;99739.22;;;18.87;69.18
38038;BME280;23843;51.320;12.340;2022-10-15T16:35:32;99743.94;;;18.85;69.32
38038;BME280;23843;51.320;12.340;2022-10-15T16:37:58;99748.28;;;18.86;69.24
38038;BME280;23843;51.320;12.340;2022-10-15T16:40:23;99756.19;;;18.88;69.15
38038;BME280;23843;51.320;12.340;2022-10-15T16:42:48;99763.25;;;18.89;69.07
38038;BME280;23843;51.320;12.340;2022-10-15T16:45:15;99762.53;;;18.87;69.16
38038;BME280;23843;51.320;12.340;2022-10-15T16:47:40;99768.09;;;18.85;69.22
38038;BME280;23843;51.320;12.340;2022-10-15T16:50:08;99776.97;;;18.86;69.41
38038;BME280;23843;51.320;12.340;2022-10-15T16:52:33;99784.31;;;18.84;69.47
38038;BME280;23843;51.320;12.340;2022-10-15T16:54:59;99780.81;;;18.83;69.32
38038;BME280;23843;51.320;12.340;2022-10-15T16:57:24;99785.34;;;18.83;69.47
38038;BME280;23843;51.320;12.340;2022-10-15T16:59:50;99785.16;;;18.84;69.53
38038;BME280;23843;51.320;12.340;2022-10-15T17:02:15;99790.53;;;18.84;69.44
38038;BME280;23843;51.320;12.340;2022-10-15T17:04:41;99794.06;;;18.85;69.53
38038;BME280;23843;51.320;12.340;2022-10-15T17:07:07;99793.38;;;18.83;69.67
38038;BME280;23843;51.320;12.340;2022-10-15T17:09:33;99789.13;;;18.80;69.79
38038;BME280;23843;51.320;12.340;2022-10-15T17:11:58;99801.00;;;18.77;69.95
38038;BME280;23843;51.320;12.340;2022-10-15T17:14:24;99793.22;;;18.74;69.97
38038;BME280;23843;51.320;12.340;2022-10-15T17:16:51;99788.16;;;18.71;70.31
38038;BME280;23843;51.320;12.340;2022-10-15T17:19:18;99786.63;;;18.69;70.41
38038;BME280;23843;51.320;12.340;2022-10-15T17:21:44;99780.69;;;18.65;70.42
38038;BME280;23843;51.320;12.340;2022-10-15T17:24:12;99788.09;;;18.63;70.51
38038;BME280;23843;51.320;12.340;2022-10-15T17:26:39;99794.41;;;18.62;70.70
38038;BME280;23843;51.320;12.340;2022-10-15T17:29:07;99799.09;;;18.60;70.92
38038;BME280;23843;51.320;12.340;2022-10-15T17:31:33;99799.25;;;18.58;70.98
38038;BME280;23843;51.320;12.340;2022-10-15T17:34:00;99808.28;;;18.57;70.77